Time;durP1;ratioP1;P1;durP2;ratioP2;P2;SDS_P1;SDS_P2;PMS_P1;PMS_P2;Temp;Humidity;BMP_temperature;BMP_pressure;BME280_temperature;BME280_humidity;BME280_pressure;Samples;Min_cycle;Max_cycle;Signal;HPM_P1;HPM_P2
2021/04/15 00:00:52;;;;;;;5.85;2.63;;;;;;;;;;3589390;40;20100;-53
2021/04/15 00:03:29;;;;;;;4.43;2.38;;;;;;;;;;3588511;40;20028;-49
2021/04/15 00:05:58;;;;;;;5.40;2.60;;;;;;;;;;3588268;39;20118;-53
2021/04/15 00:08:24;;;;;;;8.38;2.85;;;;;;;;;;3588829;40;20307;-52
2021/04/15 00:10:52;;;;;;;5.72;2.63;;;;;;;;;;3588438;40;20045;-53
2021/04/15 00:13:22;;;;;;;5.13;3.00;;;;;;;;;;3588207;40;20055;-49
2021/04/15 00:15:48;;;;;;;4.93;2.30;;;;;;;;;;3588844;39;20079;-51
2021/04/15 00:18:13;;;;;;;5.40;2.55;;;;;;;;;;3588250;40;20367;-52
2021/04/15 00:20:39;;;;;;;4.45;2.30;;;;;;;;;;3588290;40;20049;-52
2021/04/15 00:23:04;;;;;;;5.13;2.50;;;;;;;;;;3587818;40;20518;-53
2021/04/15 00:25:30;;;;;;;4.63;2.47;;;;;;;;;;3588239;40;20051;-52
2021/04/15 00:27:55;;;;;;;5.82;2.63;;;;;;;;;;3588133;40;20372;-52
2021/04/15 00:30:22;;;;;;;6.35;3.10;;;;;;;;;;3588610;40;20114;-53
2021/04/15 00:32:47;;;;;;;5.63;2.47;;;;;;;;;;3588553;40;20028;-54
2021/04/15 00:35:14;;;;;;;5.60;3.22;;;;;;;;;;3588575;40;20156;-48
2021/04/15 00:37:39;;;;;;;6.90;2.75;;;;;;;;;;3588031;40;20051;-53
2021/04/15 00:40:07;;;;;;;7.10;2.95;;;;;;;;;;3587709;40;20279;-49
2021/04/15 00:42:33;;;;;;;5.18;3.05;;;;;;;;;;3588364;40;20371;-53
2021/04/15 00:45:07;;;;;;;6.70;3.00;;;;;;;;;;3588150;39;20029;-51
2021/04/15 00:47:33;;;;;;;4.80;3.03;;;;;;;;;;3591420;39;20032;-52
2021/04/15 00:50:08;;;;;;;6.57;2.90;;;;;;;;;;3587755;40;20421;-51
2021/04/15 00:52:41;;;;;;;5.40;2.72;;;;;;;;;;3589176;40;20111;-53
2021/04/15 00:55:20;;;;;;;4.80;2.58;;;;;;;;;;3587994;40;20543;-54
2021/04/15 00:57:48;;;;;;;5.90;3.08;;;;;;;;;;3588108;40;20040;-49
2021/04/15 01:00:16;;;;;;;5.80;2.95;;;;;;;;;;3586798;40;20047;-52
2021/04/15 01:02:42;;;;;;;6.57;3.03;;;;;;;;;;3588005;40;20067;-53
2021/04/15 01:05:18;;;;;;;4.97;2.65;;;;;;;;;;3587693;40;20032;-53
2021/04/15 01:07:43;;;;;;;4.60;2.67;;;;;;;;;;3588361;39;20051;-52
2021/04/15 01:10:10;;;;;;;5.85;2.08;;;;;;;;;;3588333;40;20348;-52
2021/04/15 01:12:56;;;;;;;7.07;2.70;;;;;;;;;;3588737;40;20039;-51
2021/04/15 01:15:26;;;;;;;4.22;2.53;;;;;;;;;;3587964;40;20041;-52
2021/04/15 01:18:03;;;;;;;7.32;2.65;;;;;;;;;;3590129;39;20035;-51
2021/04/15 01:20:46;;;;;;;5.45;3.00;;;;;;;;;;3587231;40;20041;-50
2021/04/15 01:23:38;;;;;;;5.70;2.70;;;;;;;;;;3588126;40;20398;-50
2021/04/15 01:26:10;;;;;;;4.57;2.65;;;;;;;;;;3589765;40;20032;-51
2021/04/15 01:28:54;;;;;;;4.63;2.63;;;;;;;;;;3588347;40;20029;-51
2021/04/15 01:31:49;;;;;;;4.95;2.63;;;;;;;;;;3587367;39;20065;-52
2021/04/15 01:34:22;;;;;;;4.20;2.42;;;;;;;;;;3587606;40;20043;-53
2021/04/15 01:37:46;;;;;;;4.78;2.65;;;;;;;;;;3587568;40;20360;-50
2021/04/15 01:40:20;;;;;;;5.47;2.78;;;;;;;;;;3550511;40;20263;-54
2021/04/15 01:43:13;;;;;;;6.35;3.20;;;;;;;;;;3582368;40;20032;-52
2021/04/15 01:45:38;;;;;;;5.50;2.97;;;;;;;;;;3586476;39;20037;-51
2021/04/15 01:48:09;;;;;;;5.95;3.17;;;;;;;;;;3587145;40;20040;-51
2021/04/15 01:50:45;;;;;;;6.70;3.37;;;;;;;;;;3588523;40;20310;-53
2021/04/15 01:53:16;;;;;;;7.13;3.95;;;;;;;;;;3588138;40;20047;-53
2021/04/15 01:55:50;;;;;;;8.15;4.50;;;;;;;;;;3588580;39;20036;-54
2021/04/15 01:58:23;;;;;;;13.50;5.97;;;;;;;;;;3590640;39;20044;-48
2021/04/15 02:00:54;;;;;;;19.48;7.60;;;;;;;;;;3589354;39;20432;-49
2021/04/15 02:03:26;;;;;;;26.02;10.40;;;;;;;;;;3589403;40;20055;-50
2021/04/15 02:05:57;;;;;;;17.70;8.75;;;;;;;;;;3589456;40;20128;-51
2021/04/15 02:08:26;;;;;;;16.42;7.70;;;;;;;;;;3588726;39;20020;-51
2021/04/15 02:11:06;;;;;;;11.90;6.07;;;;;;;;;;3588992;40;20047;-52
2021/04/15 02:13:36;;;;;;;9.27;5.13;;;;;;;;;;3589480;39;20046;-50
2021/04/15 02:16:08;;;;;;;7.07;3.85;;;;;;;;;;3589070;40;20055;-55
2021/04/15 02:18:43;;;;;;;6.20;3.60;;;;;;;;;;3589732;40;20051;-53
2021/04/15 02:21:37;;;;;;;10.63;4.35;;;;;;;;;;3588750;40;20388;-53
2021/04/15 02:24:30;;;;;;;8.27;4.38;;;;;;;;;;3590484;40;20261;-51
2021/04/15 02:27:03;;;;;;;7.75;3.38;;;;;;;;;;3588858;40;20041;-51
2021/04/15 02:29:34;;;;;;;7.05;3.25;;;;;;;;;;3588942;39;20076;-50
2021/04/15 02:32:08;;;;;;;6.05;3.22;;;;;;;;;;3588800;40;20048;-51
2021/04/15 02:35:00;;;;;;;5.82;3.22;;;;;;;;;;3589598;40;20047;-51
2021/04/15 02:37:32;;;;;;;;;;;;;;;;;;3589569;40;20028;-51
2021/04/15 02:40:06;;;;;;;4.63;3.22;;;;;;;;;;3592280;39;20045;-53
2021/04/15 02:42:35;;;;;;;8.02;6.38;;;;;;;;;;3589570;40;20043;-50
2021/04/15 02:45:20;;;;;;;6.72;5.78;;;;;;;;;;3587033;39;20044;-50
2021/04/15 02:47:59;;;;;;;7.70;5.93;;;;;;;;;;3588531;40;20050;-49
2021/04/15 02:50:26;;;;;;;8.57;5.10;;;;;;;;;;3589040;40;20385;-50
2021/04/15 02:53:00;;;;;;;10.02;6.45;;;;;;;;;;3589575;39;20044;-51
2021/04/15 02:55:31;;;;;;;8.77;5.45;;;;;;;;;;3589249;40;20072;-51
2021/04/15 02:58:03;;;;;;;6.32;4.40;;;;;;;;;;3588700;40;20056;-52
2021/04/15 03:00:36;;;;;;;6.05;3.88;;;;;;;;;;3588667;40;20056;-51
2021/04/15 03:03:10;;;;;;;7.07;3.97;;;;;;;;;;3588553;40;20038;-51
2021/04/15 03:06:09;;;;;;;8.07;4.65;;;;;;;;;;3588833;39;20028;-51
2021/04/15 03:08:34;;;;;;;6.85;4.22;;;;;;;;;;3589051;40;20032;-48
2021/04/15 03:11:11;;;;;;;7.43;5.80;;;;;;;;;;3588521;40;20048;-47
2021/04/15 03:13:53;;;;;;;9.52;6.00;;;;;;;;;;3590135;39;20033;-49
2021/04/15 03:16:24;;;;;;;7.72;5.35;;;;;;;;;;3589277;40;20261;-49
2021/04/15 03:18:59;;;;;;;6.72;5.18;;;;;;;;;;3588888;40;20035;-48
2021/04/15 03:21:42;;;;;;;9.55;5.85;;;;;;;;;;3588844;40;20056;-52
2021/04/15 03:24:17;;;;;;;8.07;5.70;;;;;;;;;;3589188;40;20049;-52
2021/04/15 03:26:58;;;;;;;8.52;6.25;;;;;;;;;;3588970;40;20057;-51
2021/04/15 03:29:28;;;;;;;12.15;6.25;;;;;;;;;;3587741;40;20142;-53
2021/04/15 03:32:10;;;;;;;9.35;6.60;;;;;;;;;;3587147;40;20400;-52
2021/04/15 03:34:42;;;;;;;9.88;7.00;;;;;;;;;;3589502;40;20268;-49
2021/04/15 03:37:12;;;;;;;7.28;5.90;;;;;;;;;;3588794;40;20048;-51
2021/04/15 03:39:38;;;;;;;19.80;6.72;;;;;;;;;;3589165;40;20040;-54
2021/04/15 03:42:17;;;;;;;9.52;6.68;;;;;;;;;;3589082;40;20036;-54
2021/04/15 03:44:47;;;;;;;10.32;6.18;;;;;;;;;;3589242;40;20063;-52
2021/04/15 03:47:21;;;;;;;9.27;6.47;;;;;;;;;;3587827;40;20037;-53
2021/04/15 03:49:56;;;;;;;13.43;10.13;;;;;;;;;;3588829;40;20040;-52
2021/04/15 03:52:25;;;;;;;8.68;6.95;;;;;;;;;;3589109;40;20065;-53
2021/04/15 03:55:14;;;;;;;10.13;8.32;;;;;;;;;;3588739;40;20064;-52
2021/04/15 03:57:41;;;;;;;10.30;7.20;;;;;;;;;;3588703;40;20037;-52
2021/04/15 04:00:11;;;;;;;10.00;6.80;;;;;;;;;;3588989;40;20028;-52
2021/04/15 04:02:44;;;;;;;9.00;7.03;;;;;;;;;;3589491;40;20031;-55
2021/04/15 04:05:26;;;;;;;12.45;7.38;;;;;;;;;;3588761;39;20033;-52
2021/04/15 04:07:57;;;;;;;9.05;6.93;;;;;;;;;;3588020;39;20596;-51
2021/04/15 04:10:29;;;;;;;10.23;6.70;;;;;;;;;;3589122;40;20032;-51
2021/04/15 04:13:19;;;;;;;9.40;6.70;;;;;;;;;;3588652;40;20040;-54
2021/04/15 04:15:49;;;;;;;7.70;5.93;;;;;;;;;;3588459;40;20043;-51
2021/04/15 04:18:25;;;;;;;8.65;6.53;;;;;;;;;;3588693;40;20024;-51
2021/04/15 04:20:58;;;;;;;7.82;5.95;;;;;;;;;;3587713;40;20039;-53
2021/04/15 04:23:26;;;;;;;8.38;6.88;;;;;;;;;;3589188;40;20114;-52
2021/04/15 04:26:25;;;;;;;6.68;5.63;;;;;;;;;;3588040;40;20043;-50
2021/04/15 04:29:09;;;;;;;7.93;5.97;;;;;;;;;;3588207;40;20048;-50
2021/04/15 04:31:42;;;;;;;7.10;5.88;;;;;;;;;;3589084;40;20044;-52
2021/04/15 04:34:08;;;;;;;7.90;5.60;;;;;;;;;;3589359;40;20044;-52
2021/04/15 04:36:35;;;;;;;9.95;6.13;;;;;;;;;;3589563;40;20427;-52
2021/04/15 04:39:05;;;;;;;18.75;6.80;;;;;;;;;;3588406;40;20583;-50
2021/04/15 04:41:47;;;;;;;8.73;6.32;;;;;;;;;;3588981;40;20271;-47
2021/04/15 04:44:19;;;;;;;9.52;6.40;;;;;;;;;;3588629;40;20037;-51
2021/04/15 04:46:48;;;;;;;8.02;5.82;;;;;;;;;;3589601;40;20054;-54
2021/04/15 04:49:20;;;;;;;7.82;6.20;;;;;;;;;;3590917;39;20060;-51
2021/04/15 04:51:53;;;;;;;7.65;5.43;;;;;;;;;;3587684;40;20028;-50
2021/04/15 04:54:20;;;;;;;8.73;5.57;;;;;;;;;;3587814;40;20044;-49
2021/04/15 04:56:56;;;;;;;11.07;7.03;;;;;;;;;;3588139;40;20463;-49
2021/04/15 04:59:35;;;;;;;10.20;7.57;;;;;;;;;;3588848;40;20044;-49
2021/04/15 05:02:02;;;;;;;10.10;7.15;;;;;;;;;;3588188;40;20029;-50
2021/04/15 05:04:33;;;;;;;16.95;6.88;;;;;;;;;;3588338;39;20025;-48
2021/04/15 05:07:07;;;;;;;7.88;6.25;;;;;;;;;;3588025;39;20272;-52
2021/04/15 05:09:36;;;;;;;8.60;6.85;;;;;;;;;;3588718;40;20060;-53
2021/04/15 05:12:06;;;;;;;9.00;6.40;;;;;;;;;;3588043;40;20044;-52
2021/04/15 05:14:32;;;;;;;8.20;7.00;;;;;;;;;;3589029;40;20033;-52
2021/04/15 05:17:14;;;;;;;9.00;6.10;;;;;;;;;;3587298;39;20051;-54
2021/04/15 05:19:40;;;;;;;8.27;5.68;;;;;;;;;;3588325;39;20044;-52
2021/04/15 05:22:07;;;;;;;17.02;6.00;;;;;;;;;;3590126;39;20182;-51
2021/04/15 05:24:38;;;;;;;12.65;7.18;;;;;;;;;;3588097;39;20064;-50
2021/04/15 05:27:05;;;;;;;12.98;6.35;;;;;;;;;;3589341;40;20040;-52
2021/04/15 05:29:33;;;;;;;9.88;6.47;;;;;;;;;;3595954;39;20041;-49
2021/04/15 05:31:59;;;;;;;17.42;5.80;;;;;;;;;;3589605;39;20350;-52
2021/04/15 05:34:35;;;;;;;7.72;5.90;;;;;;;;;;3588923;40;20165;-47
2021/04/15 05:37:07;;;;;;;12.18;6.32;;;;;;;;;;3589428;40;20048;-50
2021/04/15 05:39:35;;;;;;;10.50;6.32;;;;;;;;;;3590955;40;20037;-54
2021/04/15 05:42:24;;;;;;;10.50;6.35;;;;;;;;;;3590888;39;20429;-50
2021/04/15 05:44:56;;;;;;;10.85;6.07;;;;;;;;;;3591793;40;20141;-54
2021/04/15 05:47:31;;;;;;;9.85;6.80;;;;;;;;;;3592214;40;20061;-54
2021/04/15 05:50:09;;;;;;;11.68;6.68;;;;;;;;;;3589608;40;20047;-51
2021/04/15 05:52:45;;;;;;;10.05;6.53;;;;;;;;;;3589297;39;20043;-52
2021/04/15 05:55:15;;;;;;;10.15;6.45;;;;;;;;;;3589457;40;20141;-49
2021/04/15 05:57:44;;;;;;;9.05;6.55;;;;;;;;;;3590162;40;20417;-51
2021/04/15 06:00:15;;;;;;;12.82;7.13;;;;;;;;;;3589420;40;20039;-51
2021/04/15 06:02:46;;;;;;;7.57;5.53;;;;;;;;;;3588067;40;20028;-51
2021/04/15 06:05:48;;;;;;;;;;;;;;;;;;3589381;40;20044;-52
2021/04/15 06:08:14;;;;;;;16.48;7.15;;;;;;;;;;3587461;39;20350;-51
2021/04/15 06:10:40;;;;;;;10.52;8.05;;;;;;;;;;3590075;39;20070;-52
2021/04/15 06:13:24;;;;;;;13.45;8.85;;;;;;;;;;3588937;39;20391;-54
2021/04/15 06:15:52;;;;;;;13.40;8.18;;;;;;;;;;3588895;39;20040;-51
2021/04/15 06:18:27;;;;;;;13.20;8.65;;;;;;;;;;3589272;39;20265;-53
2021/04/15 06:21:00;;;;;;;11.02;8.38;;;;;;;;;;3588869;40;20032;-52
2021/04/15 06:23:39;;;;;;;9.95;7.78;;;;;;;;;;3590219;40;20374;-54
2021/04/15 06:26:06;;;;;;;10.95;8.57;;;;;;;;;;3590427;40;20067;-54
2021/04/15 06:28:38;;;;;;;16.35;8.65;;;;;;;;;;3589131;40;20036;-54
2021/04/15 06:31:27;;;;;;;9.98;7.97;;;;;;;;;;3589795;40;20129;-51
2021/04/15 06:34:01;;;;;;;11.60;8.32;;;;;;;;;;3590108;40;20037;-54
2021/04/15 06:36:29;;;;;;;13.80;7.80;;;;;;;;;;3590104;40;20076;-48
2021/04/15 06:39:06;;;;;;;16.98;8.35;;;;;;;;;;3589285;39;20067;-54
2021/04/15 06:42:09;;;;;;;9.35;7.55;;;;;;;;;;3589881;40;20056;-52
2021/04/15 06:44:42;;;;;;;11.27;8.00;;;;;;;;;;3590122;40;20028;-53
2021/04/15 06:47:29;;;;;;;9.00;8.02;;;;;;;;;;3589157;40;20047;-48
2021/04/15 06:49:57;;;;;;;10.00;8.00;;;;;;;;;;3588815;40;20057;-52
2021/04/15 06:52:36;;;;;;;9.68;7.63;;;;;;;;;;3589298;40;20032;-50
2021/04/15 06:55:43;;;;;;;9.80;7.60;;;;;;;;;;3592219;39;20051;-50
2021/04/15 06:58:41;;;;;;;9.38;7.53;;;;;;;;;;3588421;40;20044;-54
2021/04/15 07:01:22;;;;;;;10.45;7.93;;;;;;;;;;3590145;39;20046;-53
2021/04/15 07:03:51;;;;;;;10.35;7.30;;;;;;;;;;3589315;40;20042;-54
2021/04/15 07:06:55;;;;;;;9.48;7.40;;;;;;;;;;3588839;40;20069;-51
2021/04/15 07:09:58;;;;;;;13.93;8.65;;;;;;;;;;3588713;40;20037;-51
2021/04/15 07:12:45;;;;;;;9.23;7.32;;;;;;;;;;3589175;40;20048;-53
2021/04/15 07:15:41;;;;;;;11.82;7.43;;;;;;;;;;3588660;40;20052;-53
2021/04/15 07:18:32;;;;;;;14.35;8.07;;;;;;;;;;3590356;40;20043;-53
2021/04/15 07:21:13;;;;;;;12.20;7.90;;;;;;;;;;3588979;40;20116;-53
2021/04/15 07:24:07;;;;;;;9.07;7.35;;;;;;;;;;3589756;40;20044;-52
2021/04/15 07:26:35;;;;;;;8.82;7.35;;;;;;;;;;3589719;39;20265;-52
2021/04/15 07:29:31;;;;;;;10.57;7.88;;;;;;;;;;3588516;40;20163;-52
2021/04/15 07:32:12;;;;;;;9.40;7.53;;;;;;;;;;3589423;40;20367;-53
2021/04/15 07:34:58;;;;;;;8.82;7.40;;;;;;;;;;3589363;39;20035;-53
2021/04/15 07:37:54;;;;;;;10.27;7.13;;;;;;;;;;3589396;40;20067;-51
2021/04/15 07:40:58;;;;;;;10.05;7.45;;;;;;;;;;3588932;40;20106;-55
2021/04/15 07:43:45;;;;;;;9.95;8.43;;;;;;;;;;3589216;40;20039;-49
2021/04/15 07:46:34;;;;;;;10.15;7.40;;;;;;;;;;3588004;40;20073;-53
2021/04/15 07:49:47;;;;;;;7.97;7.07;;;;;;;;;;3588716;40;20055;-54
2021/04/15 07:52:37;;;;;;;10.27;8.20;;;;;;;;;;3588569;40;20071;-51
2021/04/15 07:55:34;;;;;;;8.85;7.60;;;;;;;;;;3588680;39;20051;-51
2021/04/15 07:58:17;;;;;;;8.90;7.35;;;;;;;;;;3589341;39;20063;-54
2021/04/15 08:00:46;;;;;;;11.70;7.57;;;;;;;;;;3587768;40;20029;-52
2021/04/15 08:03:49;;;;;;;9.07;7.95;;;;;;;;;;3588638;40;20257;-53
2021/04/15 08:06:34;;;;;;;11.38;7.43;;;;;;;;;;3589501;40;20029;-53
2021/04/15 08:09:21;;;;;;;11.48;8.15;;;;;;;;;;3587980;40;20028;-54
2021/04/15 08:11:56;;;;;;;10.05;8.02;;;;;;;;;;3589564;40;20397;-53
2021/04/15 08:14:32;;;;;;;9.77;7.43;;;;;;;;;;3588223;39;20275;-55
2021/04/15 08:17:26;;;;;;;9.68;8.23;;;;;;;;;;3588757;39;20116;-54
2021/04/15 08:20:00;;;;;;;8.60;6.65;;;;;;;;;;3590088;39;20072;-52
2021/04/15 08:22:44;;;;;;;9.82;7.30;;;;;;;;;;3587564;40;20149;-51
2021/04/15 08:25:44;;;;;;;8.73;7.20;;;;;;;;;;3588768;40;20045;-53
2021/04/15 08:28:38;;;;;;;9.95;6.95;;;;;;;;;;3587668;40;20048;-55
2021/04/15 08:31:09;;;;;;;16.10;7.60;;;;;;;;;;3588163;40;20028;-52
2021/04/15 08:34:08;;;;;;;12.02;7.15;;;;;;;;;;3587802;40;20044;-55
2021/04/15 08:37:01;;;;;;;12.23;7.15;;;;;;;;;;3588913;40;20072;-54
2021/04/15 08:39:34;;;;;;;9.18;6.75;;;;;;;;;;3587017;39;20093;-52
2021/04/15 08:42:21;;;;;;;10.70;7.10;;;;;;;;;;3589065;39;20047;-54
2021/04/15 08:45:11;;;;;;;10.13;6.72;;;;;;;;;;3588610;39;20032;-55
2021/04/15 08:47:49;;;;;;;10.48;6.97;;;;;;;;;;3588635;39;20040;-54
2021/04/15 08:50:29;;;;;;;13.95;6.47;;;;;;;;;;3587267;39;20064;-52
2021/04/15 08:52:55;;;;;;;9.33;6.27;;;;;;;;;;3587913;39;20053;-54
2021/04/15 08:55:31;;;;;;;10.65;7.15;;;;;;;;;;3590906;39;20735;-54
2021/04/15 08:58:11;;;;;;;8.90;6.07;;;;;;;;;;3588553;39;20105;-54
2021/04/15 09:00:53;;;;;;;8.55;6.07;;;;;;;;;;3589296;39;20037;-54
2021/04/15 09:03:49;;;;;;;7.95;5.78;;;;;;;;;;3589458;39;20382;-54
2021/04/15 09:06:32;;;;;;;9.13;6.03;;;;;;;;;;3590248;39;20044;-54
2021/04/15 09:09:42;;;;;;;8.60;5.97;;;;;;;;;;3589808;39;20280;-55
2021/04/15 09:12:31;;;;;;;9.20;5.40;;;;;;;;;;3588017;39;20036;-51
2021/04/15 09:15:00;;;;;;;8.30;5.82;;;;;;;;;;3588484;39;20044;-53
2021/04/15 09:17:36;;;;;;;11.13;4.80;;;;;;;;;;3590861;39;20040;-55
2021/04/15 09:20:10;;;;;;;8.45;5.15;;;;;;;;;;3590157;39;20054;-52
2021/04/15 09:22:41;;;;;;;6.93;4.40;;;;;;;;;;3593177;39;20029;-54
2021/04/15 09:25:07;;;;;;;;;;;;;;;;;;3591215;39;20040;-55
2021/04/15 09:28:00;;;;;;;7.22;4.90;;;;;;;;;;3591144;39;20239;-54
2021/04/15 09:30:43;;;;;;;7.03;4.43;;;;;;;;;;3591120;39;20141;-54
2021/04/15 09:33:55;;;;;;;8.10;4.72;;;;;;;;;;3590800;39;20037;-54
2021/04/15 09:36:25;;;;;;;10.30;5.30;;;;;;;;;;3590007;39;20044;-54
2021/04/15 09:39:12;;;;;;;7.10;4.90;;;;;;;;;;3588687;39;20032;-51
2021/04/15 09:42:00;;;;;;;7.47;5.68;;;;;;;;;;3590130;39;20040;-55
2021/04/15 09:44:34;;;;;;;7.30;5.75;;;;;;;;;;3589292;39;20032;-55
2021/04/15 09:47:34;;;;;;;8.25;5.97;;;;;;;;;;3589818;39;20036;-52
2021/04/15 09:50:21;;;;;;;11.52;5.88;;;;;;;;;;3590354;39;20445;-54
2021/04/15 09:53:02;;;;;;;7.03;5.68;;;;;;;;;;3589305;39;20064;-55
2021/04/15 09:55:42;;;;;;;11.00;5.57;;;;;;;;;;3590159;39;20119;-52
2021/04/15 09:58:32;;;;;;;6.88;5.78;;;;;;;;;;3589624;39;20055;-55
2021/04/15 10:01:14;;;;;;;8.70;5.97;;;;;;;;;;3589082;39;20283;-54
2021/04/15 10:03:50;;;;;;;7.63;6.13;;;;;;;;;;3589297;39;20129;-54
2021/04/15 10:06:25;;;;;;;12.32;5.82;;;;;;;;;;3589214;39;20035;-54
2021/04/15 10:09:05;;;;;;;9.73;5.93;;;;;;;;;;3589515;39;20288;-55
2021/04/15 10:11:59;;;;;;;5.95;4.80;;;;;;;;;;3589232;39;20037;-53
2021/04/15 10:14:32;;;;;;;7.93;5.70;;;;;;;;;;3591615;39;20035;-54
2021/04/15 10:17:22;;;;;;;12.55;5.70;;;;;;;;;;3589077;39;20040;-54
2021/04/15 10:19:56;;;;;;;7.60;5.47;;;;;;;;;;3588752;39;20048;-56
2021/04/15 10:22:43;;;;;;;8.77;6.20;;;;;;;;;;3587052;40;20048;-54
2021/04/15 10:25:23;;;;;;;8.07;4.72;;;;;;;;;;3588831;39;20041;-54
2021/04/15 10:28:25;;;;;;;7.10;4.72;;;;;;;;;;3588715;39;20032;-55
2021/04/15 10:31:09;;;;;;;7.25;4.28;;;;;;;;;;3590932;39;20433;-53
2021/04/15 10:34:12;;;;;;;9.63;4.55;;;;;;;;;;3589393;39;20076;-53
2021/04/15 10:36:52;;;;;;;9.57;5.85;;;;;;;;;;3589653;39;20033;-52
2021/04/15 10:39:42;;;;;;;9.02;6.03;;;;;;;;;;3589314;39;20131;-53
2021/04/15 10:42:34;;;;;;;7.10;4.65;;;;;;;;;;3589336;39;20064;-55
2021/04/15 10:45:20;;;;;;;6.70;4.18;;;;;;;;;;3590135;40;20036;-54
2021/04/15 10:47:55;;;;;;;8.73;4.47;;;;;;;;;;3589771;39;20028;-51
2021/04/15 10:50:45;;;;;;;6.75;4.32;;;;;;;;;;3588734;39;20044;-53
2021/04/15 10:53:24;;;;;;;8.07;3.95;;;;;;;;;;3590059;39;20446;-55
2021/04/15 10:56:03;;;;;;;8.65;3.47;;;;;;;;;;3587578;39;20044;-53
2021/04/15 10:58:37;;;;;;;6.15;3.85;;;;;;;;;;3588372;39;20410;-53
2021/04/15 11:01:26;;;;;;;8.10;3.40;;;;;;;;;;3586976;39;20059;-54
2021/04/15 11:04:21;;;;;;;15.65;3.42;;;;;;;;;;3587708;39;20048;-53
2021/04/15 11:06:48;;;;;;;7.32;3.35;;;;;;;;;;3589755;39;20034;-54
2021/04/15 11:09:15;;;;;;;6.50;3.90;;;;;;;;;;3588504;39;20044;-55
2021/04/15 11:11:57;;;;;;;5.93;2.90;;;;;;;;;;3590149;39;20052;-53
2021/04/15 11:14:30;;;;;;;4.75;3.00;;;;;;;;;;3588197;39;20049;-54
2021/04/15 11:16:56;;;;;;;8.93;3.13;;;;;;;;;;3592441;39;20045;-53
2021/04/15 11:19:28;;;;;;;8.95;3.60;;;;;;;;;;3588684;39;20044;-52
2021/04/15 11:21:57;;;;;;;5.30;2.97;;;;;;;;;;3589008;39;20356;-53
2021/04/15 11:24:32;;;;;;;8.70;3.65;;;;;;;;;;3588354;39;20379;-54
2021/04/15 11:27:05;;;;;;;15.82;4.10;;;;;;;;;;3590147;39;20041;-52
2021/04/15 11:29:49;;;;;;;5.75;3.50;;;;;;;;;;3588926;39;20052;-51
2021/04/15 11:32:25;;;;;;;8.30;4.45;;;;;;;;;;3589094;39;20659;-52
2021/04/15 11:35:02;;;;;;;6.45;3.35;;;;;;;;;;3590840;39;20389;-52
2021/04/15 11:37:28;;;;;;;6.10;4.20;;;;;;;;;;3588328;39;20040;-53
2021/04/15 11:40:16;;;;;;;9.90;4.00;;;;;;;;;;3589441;39;20529;-54
2021/04/15 11:42:42;;;;;;;6.82;4.57;;;;;;;;;;3590045;39;20120;-52
2021/04/15 11:45:12;;;;;;;6.40;4.20;;;;;;;;;;3588315;39;20041;-54
2021/04/15 11:47:37;;;;;;;7.07;4.07;;;;;;;;;;3587025;39;20364;-52
2021/04/15 11:50:11;;;;;;;4.78;3.70;;;;;;;;;;3588573;39;20121;-53
2021/04/15 11:52:40;;;;;;;7.10;4.10;;;;;;;;;;3589960;39;20049;-53
2021/04/15 11:55:20;;;;;;;7.97;3.75;;;;;;;;;;3588991;39;20036;-51
2021/04/15 11:57:55;;;;;;;8.93;3.40;;;;;;;;;;3589283;39;20036;-52
2021/04/15 12:00:25;;;;;;;6.97;3.47;;;;;;;;;;3589622;39;20133;-50
2021/04/15 12:02:56;;;;;;;10.55;4.00;;;;;;;;;;3587825;39;20028;-52
2021/04/15 12:05:26;;;;;;;5.85;3.20;;;;;;;;;;3588716;39;20367;-54
2021/04/15 12:07:58;;;;;;;8.43;2.97;;;;;;;;;;3588877;39;20052;-54
2021/04/15 12:10:27;;;;;;;5.65;2.20;;;;;;;;;;3590134;39;20032;-53
2021/04/15 12:12:58;;;;;;;5.40;1.83;;;;;;;;;;3589368;39;20035;-51
2021/04/15 12:15:32;;;;;;;4.50;2.38;;;;;;;;;;3588286;39;20430;-53
2021/04/15 12:18:04;;;;;;;5.50;2.58;;;;;;;;;;3587848;39;20383;-54
2021/04/15 12:20:42;;;;;;;4.75;2.15;;;;;;;;;;3589310;39;20029;-59
2021/04/15 12:23:45;;;;;;;4.40;1.88;;;;;;;;;;3590318;39;20264;-59
2021/04/15 12:26:23;;;;;;;3.13;1.83;;;;;;;;;;3588428;39;20055;-58
2021/04/15 12:29:10;;;;;;;2.97;1.63;;;;;;;;;;3588934;39;20044;-59
2021/04/15 12:32:27;;;;;;;3.90;1.88;;;;;;;;;;3588174;39;20044;-59
2021/04/15 12:35:06;;;;;;;10.20;4.68;;;;;;;;;;3588115;39;20040;-59
2021/04/15 12:37:44;;;;;;;5.53;3.25;;;;;;;;;;3589216;39;20028;-58
2021/04/15 12:40:36;;;;;;;4.32;2.25;;;;;;;;;;3588706;39;20263;-55
2021/04/15 12:43:15;;;;;;;11.02;1.98;;;;;;;;;;3588331;39;20053;-57
2021/04/15 12:46:00;;;;;;;5.43;1.90;;;;;;;;;;3589782;39;20056;-59
2021/04/15 12:48:47;;;;;;;5.47;1.80;;;;;;;;;;3590784;39;20050;-58
2021/04/15 12:51:16;;;;;;;4.35;2.33;;;;;;;;;;3587849;39;20108;-58
2021/04/15 12:53:45;;;;;;;5.10;2.45;;;;;;;;;;3588872;39;20053;-58
2021/04/15 12:56:15;;;;;;;9.30;4.85;;;;;;;;;;3588222;39;20052;-59
2021/04/15 12:58:41;;;;;;;8.52;4.78;;;;;;;;;;3587440;40;20063;-58
2021/04/15 13:01:08;;;;;;;5.93;3.25;;;;;;;;;;3587917;40;20037;-59
2021/04/15 13:03:36;;;;;;;4.45;2.70;;;;;;;;;;3590902;39;20130;-67
2021/04/15 13:06:15;;;;;;;4.93;2.30;;;;;;;;;;3590030;39;20037;-67
2021/04/15 13:08:44;;;;;;;4.82;2.17;;;;;;;;;;3589032;40;20047;-67
2021/04/15 13:11:33;;;;;;;4.10;2.47;;;;;;;;;;3588584;40;20029;-67
2021/04/15 13:14:00;;;;;;;3.88;1.95;;;;;;;;;;3588325;39;20037;-67
2021/04/15 13:16:31;;;;;;;6.97;2.60;;;;;;;;;;3588245;39;20383;-66
2021/04/15 13:18:57;;;;;;;4.85;2.35;;;;;;;;;;3590749;39;20040;-66
2021/04/15 13:21:27;;;;;;;6.20;2.38;;;;;;;;;;3588378;40;20080;-66
2021/04/15 13:23:53;;;;;;;4.35;2.38;;;;;;;;;;3588538;39;20286;-66
2021/04/15 13:26:26;;;;;;;5.05;2.60;;;;;;;;;;3589404;40;20052;-66
2021/04/15 13:28:51;;;;;;;7.25;2.22;;;;;;;;;;3588180;40;20052;-66
2021/04/15 13:31:48;;;;;;;6.30;2.25;;;;;;;;;;3587774;40;20505;-66
2021/04/15 13:34:14;;;;;;;8.50;2.55;;;;;;;;;;3589564;39;20029;-66
2021/04/15 13:36:42;;;;;;;11.45;4.55;;;;;;;;;;3589222;40;20304;-66
2021/04/15 13:39:28;;;;;;;6.18;2.10;;;;;;;;;;3587806;40;20044;-67
2021/04/15 13:41:54;;;;;;;4.90;2.10;;;;;;;;;;3587705;40;20275;-67
2021/04/15 13:45:04;;;;;;;5.55;1.90;;;;;;;;;;3588144;39;20048;-67
2021/04/15 13:47:50;;;;;;;6.63;1.70;;;;;;;;;;3579488;40;20058;-66
2021/04/15 13:50:18;;;;;;;4.25;1.90;;;;;;;;;;3586645;40;20036;-66
2021/04/15 13:52:43;;;;;;;4.43;1.60;;;;;;;;;;3588236;39;20376;-66
2021/04/15 13:55:27;;;;;;;5.63;1.92;;;;;;;;;;3591337;39;20072;-66
2021/04/15 13:57:53;;;;;;;4.30;2.00;;;;;;;;;;3589285;39;20036;-65
2021/04/15 14:00:38;;;;;;;4.70;2.20;;;;;;;;;;3589882;40;20051;-65
2021/04/15 14:03:04;;;;;;;7.25;2.60;;;;;;;;;;3589082;40;20052;-65
2021/04/15 14:05:34;;;;;;;4.38;2.17;;;;;;;;;;3589037;40;20049;-65
2021/04/15 14:08:21;;;;;;;5.97;2.72;;;;;;;;;;3590594;40;20040;-65
2021/04/15 14:10:46;;;;;;;8.60;3.08;;;;;;;;;;3590211;40;20040;-65
2021/04/15 14:13:21;;;;;;;6.50;3.10;;;;;;;;;;3589161;40;20142;-65
2021/04/15 14:15:55;;;;;;;7.95;3.53;;;;;;;;;;3589428;40;20279;-66
2021/04/15 14:18:33;;;;;;;4.30;2.63;;;;;;;;;;3590128;39;20315;-65
2021/04/15 14:21:20;;;;;;;5.65;2.40;;;;;;;;;;3589339;40;20029;-66
2021/04/15 14:23:53;;;;;;;4.72;3.15;;;;;;;;;;3591374;39;20407;-65
2021/04/15 14:26:27;;;;;;;6.47;2.72;;;;;;;;;;3589497;39;20040;-65
2021/04/15 14:29:06;;;;;;;4.63;2.10;;;;;;;;;;3589614;39;20058;-65
2021/04/15 14:31:36;;;;;;;6.75;3.70;;;;;;;;;;3591114;39;20032;-65
2021/04/15 14:34:20;;;;;;;5.53;2.42;;;;;;;;;;3591176;39;20337;-64
2021/04/15 14:36:55;;;;;;;5.72;2.40;;;;;;;;;;3590455;39;20367;-64
2021/04/15 14:39:41;;;;;;;6.53;2.72;;;;;;;;;;3591961;39;20036;-64
2021/04/15 14:42:13;;;;;;;5.35;2.60;;;;;;;;;;3588870;40;20039;-66
2021/04/15 14:44:39;;;;;;;7.78;2.90;;;;;;;;;;3589726;39;20036;-66
2021/04/15 14:47:06;;;;;;;6.53;3.22;;;;;;;;;;3590040;39;20272;-65
2021/04/15 14:49:34;;;;;;;6.80;2.45;;;;;;;;;;3590290;40;20029;-65
2021/04/15 14:52:12;;;;;;;10.93;3.03;;;;;;;;;;3589607;40;20401;-65
2021/04/15 14:54:38;;;;;;;6.20;2.45;;;;;;;;;;3589917;39;20051;-65
2021/04/15 14:57:07;;;;;;;5.13;2.28;;;;;;;;;;3588982;40;20045;-65
2021/04/15 14:59:39;;;;;;;6.38;2.50;;;;;;;;;;3589142;40;20032;-54
2021/04/15 15:02:08;;;;;;;5.57;3.17;;;;;;;;;;3589013;39;20155;-51
2021/04/15 15:04:35;;;;;;;6.18;3.20;;;;;;;;;;3589328;40;20068;-55
2021/04/15 15:07:01;;;;;;;4.90;2.67;;;;;;;;;;3588770;39;20090;-53
2021/04/15 15:09:32;;;;;;;7.57;3.00;;;;;;;;;;3589212;40;20036;-52
2021/04/15 15:12:00;;;;;;;5.60;2.63;;;;;;;;;;3590240;39;20129;-50
2021/04/15 15:14:32;;;;;;;4.22;2.03;;;;;;;;;;3590992;39;20107;-51
2021/04/15 15:16:58;;;;;;;5.55;2.65;;;;;;;;;;3589369;39;20045;-50
2021/04/15 15:19:30;;;;;;;5.03;2.50;;;;;;;;;;3588949;40;20076;-53
2021/04/15 15:22:23;;;;;;;6.80;2.20;;;;;;;;;;3589379;40;20060;-53
2021/04/15 15:24:48;;;;;;;5.53;2.47;;;;;;;;;;3589668;39;20113;-52
2021/04/15 15:27:33;;;;;;;7.40;2.22;;;;;;;;;;3588982;39;20032;-54
2021/04/15 15:30:11;;;;;;;4.47;2.40;;;;;;;;;;3588937;39;20041;-53
2021/04/15 15:32:41;;;;;;;4.53;2.10;;;;;;;;;;3589920;39;20073;-53
2021/04/15 15:35:20;;;;;;;4.97;1.95;;;;;;;;;;3589547;39;20055;-52
2021/04/15 15:37:50;;;;;;;4.25;1.90;;;;;;;;;;3589239;40;20064;-51
2021/04/15 15:40:37;;;;;;;5.25;2.33;;;;;;;;;;3588044;40;20117;-54